sensor_id;sensor_type;location;lat;lon;timestamp;temperature;humidity
4518;DHT22;2271;49.464;11.070;2022-10-10T00:00:36;12.50;99.90
4518;DHT22;2271;49.464;11.070;2022-10-10T00:03:01;12.50;99.90
4518;DHT22;2271;49.464;11.070;2022-10-10T00:05:27;12.50;99.90
4518;DHT22;2271;49.464;11.070;2022-10-10T00:07:53;12.50;99.90
4518;DHT22;2271;49.464;11.070;2022-10-10T00:10:18;12.50;99.90
4518;DHT22;2271;49.464;11.070;2022-10-10T00:12:44;12.50;99.90
4518;DHT22;2271;49.464;11.070;2022-10-10T00:15:11;12.50;99.90
4518;DHT22;2271;49.464;11.070;2022-10-10T00:17:37;12.50;99.90
4518;DHT22;2271;49.464;11.070;2022-10-10T00:20:03;12.50;99.90
4518;DHT22;2271;49.464;11.070;2022-10-10T00:22:28;12.50;99.90
4518;DHT22;2271;49.464;11.070;2022-10-10T00:24:54;12.50;99.90
4518;DHT22;2271;49.464;11.070;2022-10-10T00:27:20;12.50;99.90
4518;DHT22;2271;49.464;11.070;2022-10-10T00:29:45;12.50;99.90
4518;DHT22;2271;49.464;11.070;2022-10-10T00:32:11;12.50;99.90
4518;DHT22;2271;49.464;11.070;2022-10-10T00:34:36;12.50;99.90
4518;DHT22;2271;49.464;11.070;2022-10-10T00:37:02;12.40;99.90
4518;DHT22;2271;49.464;11.070;2022-10-10T00:39:27;12.40;99.90
4518;DHT22;2271;49.464;11.070;2022-10-10T00:41:53;12.30;99.90
4518;DHT22;2271;49.464;11.070;2022-10-10T00:44:19;12.30;99.90
4518;DHT22;2271;49.464;11.070;2022-10-10T00:46:44;12.40;99.90
4518;DHT22;2271;49.464;11.070;2022-10-10T00:49:23;12.30;99.90
4518;DHT22;2271;49.464;11.070;2022-10-10T00:51:51;12.30;99.90
4518;DHT22;2271;49.464;11.070;2022-10-10T00:54:19;12.40;99.90
4518;DHT22;2271;49.464;11.070;2022-10-10T00:56:56;12.30;99.90
4518;DHT22;2271;49.464;11.070;2022-10-10T00:59:24;12.30;99.90
4518;DHT22;2271;49.464;11.070;2022-10-10T01:01:50;12.30;99.90
4518;DHT22;2271;49.464;11.070;2022-10-10T01:04:33;12.30;99.90
4518;DHT22;2271;49.464;11.070;2022-10-10T01:07:02;12.30;99.90
4518;DHT22;2271;49.464;11.070;2022-10-10T01:09:29;12.30;99.90
4518;DHT22;2271;49.464;11.070;2022-10-10T01:12:26;12.20;99.90
4518;DHT22;2271;49.464;11.070;2022-10-10T01:25:22;12.30;99.90
4518;DHT22;2271;49.464;11.070;2022-10-10T01:30:45;12.30;99.90
4518;DHT22;2271;49.464;11.070;2022-10-10T01:33:14;12.20;99.90
4518;DHT22;2271;49.464;11.070;2022-10-10T01:36:05;12.30;99.90
4518;DHT22;2271;49.464;11.070;2022-10-10T01:38:45;12.20;99.90
4518;DHT22;2271;49.464;11.070;2022-10-10T01:41:25;12.20;99.90
4518;DHT22;2271;49.464;11.070;2022-10-10T01:43:57;12.20;99.90
4518;DHT22;2271;49.464;11.070;2022-10-10T01:46:23;12.10;99.90
4518;DHT22;2271;49.464;11.070;2022-10-10T01:48:53;12.10;99.90
4518;DHT22;2271;49.464;11.070;2022-10-10T01:54:37;12.00;99.90
4518;DHT22;2271;49.464;11.070;2022-10-10T02:02:47;12.00;99.90
4518;DHT22;2271;49.464;11.070;2022-10-10T02:05:39;12.00;99.90
4518;DHT22;2271;49.464;11.070;2022-10-10T02:08:32;11.90;99.90
4518;DHT22;2271;49.464;11.070;2022-10-10T02:11:01;11.90;99.90
4518;DHT22;2271;49.464;11.070;2022-10-10T02:16:08;11.90;99.90
4518;DHT22;2271;49.464;11.070;2022-10-10T02:18:37;11.90;99.90
4518;DHT22;2271;49.464;11.070;2022-10-10T02:21:05;11.90;99.90
4518;DHT22;2271;49.464;11.070;2022-10-10T02:23:33;11.90;99.90
4518;DHT22;2271;49.464;11.070;2022-10-10T02:25:59;11.90;99.90
4518;DHT22;2271;49.464;11.070;2022-10-10T02:28:35;11.90;99.90
4518;DHT22;2271;49.464;11.070;2022-10-10T02:31:07;11.90;99.90
4518;DHT22;2271;49.464;11.070;2022-10-10T02:33:58;11.90;99.90
4518;DHT22;2271;49.464;11.070;2022-10-10T02:36:27;12.00;99.90
4518;DHT22;2271;49.464;11.070;2022-10-10T02:38:54;12.00;99.90
4518;DHT22;2271;49.464;11.070;2022-10-10T02:41:21;12.00;99.90
4518;DHT22;2271;49.464;11.070;2022-10-10T02:43:48;11.90;99.90
4518;DHT22;2271;49.464;11.070;2022-10-10T02:46:15;12.00;99.90
4518;DHT22;2271;49.464;11.070;2022-10-10T02:48:41;11.90;99.90
4518;DHT22;2271;49.464;11.070;2022-10-10T02:51:09;12.00;99.90
4518;DHT22;2271;49.464;11.070;2022-10-10T02:53:37;12.00;99.90
4518;DHT22;2271;49.464;11.070;2022-10-10T02:56:04;12.00;99.90
4518;DHT22;2271;49.464;11.070;2022-10-10T02:58:29;12.00;99.90
4518;DHT22;2271;49.464;11.070;2022-10-10T03:00:55;11.90;99.90
4518;DHT22;2271;49.464;11.070;2022-10-10T03:03:21;11.90;99.90
4518;DHT22;2271;49.464;11.070;2022-10-10T03:05:46;11.90;99.90
4518;DHT22;2271;49.464;11.070;2022-10-10T03:08:12;12.00;99.90
4518;DHT22;2271;49.464;11.070;2022-10-10T03:10:38;11.90;99.90
4518;DHT22;2271;49.464;11.070;2022-10-10T03:13:04;11.90;99.90
4518;DHT22;2271;49.464;11.070;2022-10-10T03:15:29;11.90;99.90
4518;DHT22;2271;49.464;11.070;2022-10-10T03:17:55;11.90;99.90
4518;DHT22;2271;49.464;11.070;2022-10-10T03:20:21;11.80;99.90
4518;DHT22;2271;49.464;11.070;2022-10-10T03:22:46;11.80;99.90
4518;DHT22;2271;49.464;11.070;2022-10-10T03:25:12;11.80;99.90
4518;DHT22;2271;49.464;11.070;2022-10-10T03:27:37;11.80;99.90
4518;DHT22;2271;49.464;11.070;2022-10-10T03:30:03;11.80;99.90
4518;DHT22;2271;49.464;11.070;2022-10-10T03:32:29;11.80;99.90
4518;DHT22;2271;49.464;11.070;2022-10-10T03:34:55;11.80;99.90
4518;DHT22;2271;49.464;11.070;2022-10-10T03:37:20;11.90;99.90
4518;DHT22;2271;49.464;11.070;2022-10-10T03:39:46;11.90;99.90
4518;DHT22;2271;49.464;11.070;2022-10-10T03:42:12;12.00;99.90
4518;DHT22;2271;49.464;11.070;2022-10-10T03:44:37;11.90;99.90
4518;DHT22;2271;49.464;11.070;2022-10-10T03:47:03;11.90;99.90
4518;DHT22;2271;49.464;11.070;2022-10-10T03:49:28;11.80;99.90
4518;DHT22;2271;49.464;11.070;2022-10-10T03:51:54;11.90;99.90
4518;DHT22;2271;49.464;11.070;2022-10-10T03:54:20;11.80;99.90
4518;DHT22;2271;49.464;11.070;2022-10-10T03:56:46;11.80;99.90
4518;DHT22;2271;49.464;11.070;2022-10-10T03:59:11;11.70;99.90
4518;DHT22;2271;49.464;11.070;2022-10-10T04:01:37;11.70;99.90
4518;DHT22;2271;49.464;11.070;2022-10-10T04:04:03;11.70;99.90
4518;DHT22;2271;49.464;11.070;2022-10-10T04:06:29;11.60;99.90
4518;DHT22;2271;49.464;11.070;2022-10-10T04:08:55;11.60;99.90
4518;DHT22;2271;49.464;11.070;2022-10-10T04:11:20;11.60;99.90
4518;DHT22;2271;49.464;11.070;2022-10-10T04:13:46;11.50;99.90
4518;DHT22;2271;49.464;11.070;2022-10-10T04:16:12;11.50;99.90
4518;DHT22;2271;49.464;11.070;2022-10-10T04:18:37;11.60;99.90
4518;DHT22;2271;49.464;11.070;2022-10-10T04:21:04;11.60;99.90
4518;DHT22;2271;49.464;11.070;2022-10-10T04:23:30;11.60;99.90
4518;DHT22;2271;49.464;11.070;2022-10-10T04:25:56;11.70;99.90
4518;DHT22;2271;49.464;11.070;2022-10-10T04:28:21;11.70;99.90
4518;DHT22;2271;49.464;11.070;2022-10-10T04:30:47;11.70;99.90
4518;DHT22;2271;49.464;11.070;2022-10-10T04:33:13;11.60;99.90
4518;DHT22;2271;49.464;11.070;2022-10-10T04:35:39;11.60;99.90
4518;DHT22;2271;49.464;11.070;2022-10-10T04:38:05;11.50;99.90
4518;DHT22;2271;49.464;11.070;2022-10-10T04:40:31;11.60;99.90
4518;DHT22;2271;49.464;11.070;2022-10-10T04:42:56;11.60;99.90
4518;DHT22;2271;49.464;11.070;2022-10-10T04:45:22;11.60;99.90
4518;DHT22;2271;49.464;11.070;2022-10-10T04:47:51;11.50;99.90
4518;DHT22;2271;49.464;11.070;2022-10-10T04:50:17;11.50;99.90
4518;DHT22;2271;49.464;11.070;2022-10-10T04:52:43;11.60;99.90
4518;DHT22;2271;49.464;11.070;2022-10-10T04:55:09;11.60;99.90
4518;DHT22;2271;49.464;11.070;2022-10-10T04:57:35;11.60;99.90
4518;DHT22;2271;49.464;11.070;2022-10-10T05:00:00;11.50;99.90
4518;DHT22;2271;49.464;11.070;2022-10-10T05:02:26;11.50;99.90
4518;DHT22;2271;49.464;11.070;2022-10-10T05:04:52;11.50;99.90
4518;DHT22;2271;49.464;11.070;2022-10-10T05:07:17;11.50;99.90
4518;DHT22;2271;49.464;11.070;2022-10-10T05:09:43;11.50;99.90
4518;DHT22;2271;49.464;11.070;2022-10-10T05:12:08;11.50;99.90
4518;DHT22;2271;49.464;11.070;2022-10-10T05:14:34;11.40;99.90
4518;DHT22;2271;49.464;11.070;2022-10-10T05:16:59;11.40;99.90
4518;DHT22;2271;49.464;11.070;2022-10-10T05:19:25;11.40;99.90
4518;DHT22;2271;49.464;11.070;2022-10-10T05:21:51;11.40;99.90
4518;DHT22;2271;49.464;11.070;2022-10-10T05:24:16;11.30;99.90
4518;DHT22;2271;49.464;11.070;2022-10-10T05:26:42;11.30;99.90
4518;DHT22;2271;49.464;11.070;2022-10-10T05:29:07;11.30;99.90
4518;DHT22;2271;49.464;11.070;2022-10-10T05:31:33;11.20;99.90
4518;DHT22;2271;49.464;11.070;2022-10-10T05:33:59;11.20;99.90
4518;DHT22;2271;49.464;11.070;2022-10-10T05:36:25;11.20;99.90
4518;DHT22;2271;49.464;11.070;2022-10-10T05:38:50;11.20;99.90
4518;DHT22;2271;49.464;11.070;2022-10-10T05:41:16;11.20;99.90
4518;DHT22;2271;49.464;11.070;2022-10-10T05:43:42;11.20;99.90
4518;DHT22;2271;49.464;11.070;2022-10-10T05:46:07;11.30;99.90
4518;DHT22;2271;49.464;11.070;2022-10-10T05:48:33;11.30;99.90
4518;DHT22;2271;49.464;11.070;2022-10-10T05:50:59;11.30;99.90
4518;DHT22;2271;49.464;11.070;2022-10-10T05:53:26;11.30;99.90
4518;DHT22;2271;49.464;11.070;2022-10-10T05:55:52;11.30;99.90
4518;DHT22;2271;49.464;11.070;2022-10-10T05:58:19;11.30;99.90
4518;DHT22;2271;49.464;11.070;2022-10-10T06:00:45;11.30;99.90
4518;DHT22;2271;49.464;11.070;2022-10-10T06:03:12;11.30;99.90
4518;DHT22;2271;49.464;11.070;2022-10-10T06:05:44;11.40;99.90
4518;DHT22;2271;49.464;11.070;2022-10-10T06:08:10;11.40;99.90
4518;DHT22;2271;49.464;11.070;2022-10-10T06:10:41;11.40;99.90
4518;DHT22;2271;49.464;11.070;2022-10-10T06:13:12;11.30;99.90
4518;DHT22;2271;49.464;11.070;2022-10-10T06:15:38;11.30;99.90
4518;DHT22;2271;49.464;11.070;2022-10-10T06:18:04;11.30;99.90
4518;DHT22;2271;49.464;11.070;2022-10-10T06:20:33;11.30;99.90
4518;DHT22;2271;49.464;11.070;2022-10-10T06:22:59;11.30;99.90
4518;DHT22;2271;49.464;11.070;2022-10-10T06:25:25;11.40;99.90
4518;DHT22;2271;49.464;11.070;2022-10-10T06:27:50;11.30;99.90
4518;DHT22;2271;49.464;11.070;2022-10-10T06:30:16;11.30;99.90
4518;DHT22;2271;49.464;11.070;2022-10-10T06:32:42;11.30;99.90
4518;DHT22;2271;49.464;11.070;2022-10-10T06:35:08;11.30;99.90
4518;DHT22;2271;49.464;11.070;2022-10-10T06:37:33;11.30;99.90
4518;DHT22;2271;49.464;11.070;2022-10-10T06:39:59;11.30;99.90
4518;DHT22;2271;49.464;11.070;2022-10-10T06:42:25;11.40;99.90
4518;DHT22;2271;49.464;11.070;2022-10-10T06:44:50;11.30;99.90
4518;DHT22;2271;49.464;11.070;2022-10-10T06:47:16;11.40;99.90
4518;DHT22;2271;49.464;11.070;2022-10-10T06:49:42;11.40;99.90
4518;DHT22;2271;49.464;11.070;2022-10-10T06:52:07;11.40;99.90
4518;DHT22;2271;49.464;11.070;2022-10-10T06:54:33;11.40;99.90
4518;DHT22;2271;49.464;11.070;2022-10-10T06:56:58;11.50;99.90
4518;DHT22;2271;49.464;11.070;2022-10-10T06:59:24;11.60;99.90
4518;DHT22;2271;49.464;11.070;2022-10-10T07:01:50;11.80;99.90
4518;DHT22;2271;49.464;11.070;2022-10-10T07:04:15;12.00;99.90
4518;DHT22;2271;49.464;11.070;2022-10-10T07:06:41;12.10;99.90
4518;DHT22;2271;49.464;11.070;2022-10-10T07:09:06;12.10;99.90
4518;DHT22;2271;49.464;11.070;2022-10-10T07:11:32;12.00;99.90
4518;DHT22;2271;49.464;11.070;2022-10-10T07:13:58;12.10;99.90
4518;DHT22;2271;49.464;11.070;2022-10-10T07:16:23;12.10;99.90
4518;DHT22;2271;49.464;11.070;2022-10-10T07:18:49;12.10;99.90
4518;DHT22;2271;49.464;11.070;2022-10-10T07:21:14;12.10;99.90
4518;DHT22;2271;49.464;11.070;2022-10-10T07:23:40;12.20;99.90
4518;DHT22;2271;49.464;11.070;2022-10-10T07:26:11;12.20;99.90
4518;DHT22;2271;49.464;11.070;2022-10-10T07:28:38;12.10;99.90
4518;DHT22;2271;49.464;11.070;2022-10-10T07:31:06;12.30;99.90
4518;DHT22;2271;49.464;11.070;2022-10-10T07:33:41;12.30;99.90
4518;DHT22;2271;49.464;11.070;2022-10-10T07:36:07;12.30;99.90
4518;DHT22;2271;49.464;11.070;2022-10-10T07:38:34;12.50;99.90
4518;DHT22;2271;49.464;11.070;2022-10-10T07:41:04;12.70;99.90
4518;DHT22;2271;49.464;11.070;2022-10-10T07:43:30;12.80;99.90
4518;DHT22;2271;49.464;11.070;2022-10-10T07:45:56;13.00;99.90
4518;DHT22;2271;49.464;11.070;2022-10-10T07:48:21;13.10;99.90
4518;DHT22;2271;49.464;11.070;2022-10-10T07:50:47;13.10;99.90
4518;DHT22;2271;49.464;11.070;2022-10-10T07:53:13;13.10;99.90
4518;DHT22;2271;49.464;11.070;2022-10-10T07:55:40;13.20;99.90
4518;DHT22;2271;49.464;11.070;2022-10-10T07:58:06;13.20;99.90
4518;DHT22;2271;49.464;11.070;2022-10-10T08:00:31;13.30;99.90
4518;DHT22;2271;49.464;11.070;2022-10-10T08:02:57;13.50;99.90
4518;DHT22;2271;49.464;11.070;2022-10-10T08:05:23;13.40;99.90
4518;DHT22;2271;49.464;11.070;2022-10-10T08:07:49;13.50;99.90
4518;DHT22;2271;49.464;11.070;2022-10-10T08:10:15;13.40;99.90
4518;DHT22;2271;49.464;11.070;2022-10-10T08:12:40;13.40;99.90
4518;DHT22;2271;49.464;11.070;2022-10-10T08:15:07;13.40;99.90
4518;DHT22;2271;49.464;11.070;2022-10-10T08:17:32;13.50;99.90
4518;DHT22;2271;49.464;11.070;2022-10-10T08:19:58;13.50;99.90
4518;DHT22;2271;49.464;11.070;2022-10-10T08:22:24;13.50;99.90
4518;DHT22;2271;49.464;11.070;2022-10-10T08:24:49;13.60;99.90
4518;DHT22;2271;49.464;11.070;2022-10-10T08:27:15;13.60;99.90
4518;DHT22;2271;49.464;11.070;2022-10-10T08:29:42;13.60;99.90
4518;DHT22;2271;49.464;11.070;2022-10-10T08:32:08;13.60;99.90
4518;DHT22;2271;49.464;11.070;2022-10-10T08:34:34;13.60;99.90
4518;DHT22;2271;49.464;11.070;2022-10-10T08:36:59;13.50;99.90
4518;DHT22;2271;49.464;11.070;2022-10-10T08:39:25;13.50;99.90
4518;DHT22;2271;49.464;11.070;2022-10-10T08:41:54;13.50;99.90
4518;DHT22;2271;49.464;11.070;2022-10-10T08:44:39;13.50;99.90
4518;DHT22;2271;49.464;11.070;2022-10-10T08:54:38;13.50;99.90
4518;DHT22;2271;49.464;11.070;2022-10-10T08:57:05;13.50;99.90
4518;DHT22;2271;49.464;11.070;2022-10-10T08:59:37;13.70;99.90
4518;DHT22;2271;49.464;11.070;2022-10-10T09:04:47;13.80;99.90
4518;DHT22;2271;49.464;11.070;2022-10-10T09:10:17;14.60;99.90
4518;DHT22;2271;49.464;11.070;2022-10-10T09:16:32;15.30;99.90
4518;DHT22;2271;49.464;11.070;2022-10-10T09:21:15;15.60;99.90
4518;DHT22;2271;49.464;11.070;2022-10-10T09:23:48;15.80;99.90
4518;DHT22;2271;49.464;11.070;2022-10-10T09:26:20;16.10;99.90
4518;DHT22;2271;49.464;11.070;2022-10-10T09:31:43;16.50;99.90
4518;DHT22;2271;49.464;11.070;2022-10-10T09:34:19;16.50;99.90
4518;DHT22;2271;49.464;11.070;2022-10-10T09:36:47;16.40;99.90
4518;DHT22;2271;49.464;11.070;2022-10-10T09:39:27;16.50;99.90
4518;DHT22;2271;49.464;11.070;2022-10-10T09:42:02;16.80;99.90
4518;DHT22;2271;49.464;11.070;2022-10-10T09:44:31;17.20;99.90
4518;DHT22;2271;49.464;11.070;2022-10-10T09:46:57;17.40;99.90
4518;DHT22;2271;49.464;11.070;2022-10-10T09:49:24;17.30;99.90
4518;DHT22;2271;49.464;11.070;2022-10-10T09:51:49;17.30;99.90
4518;DHT22;2271;49.464;11.070;2022-10-10T09:54:17;17.30;99.90
4518;DHT22;2271;49.464;11.070;2022-10-10T09:57:00;17.20;99.90
4518;DHT22;2271;49.464;11.070;2022-10-10T09:59:41;16.70;99.90
4518;DHT22;2271;49.464;11.070;2022-10-10T10:02:24;16.60;99.90
4518;DHT22;2271;49.464;11.070;2022-10-10T10:04:51;16.60;99.90
4518;DHT22;2271;49.464;11.070;2022-10-10T10:09:50;16.70;99.90
4518;DHT22;2271;49.464;11.070;2022-10-10T10:12:23;16.90;99.90
4518;DHT22;2271;49.464;11.070;2022-10-10T10:14:51;17.00;99.90
4518;DHT22;2271;49.464;11.070;2022-10-10T10:17:22;17.20;99.90
4518;DHT22;2271;49.464;11.070;2022-10-10T10:19:49;17.50;99.90
4518;DHT22;2271;49.464;11.070;2022-10-10T10:24:58;17.70;99.90
4518;DHT22;2271;49.464;11.070;2022-10-10T10:27:26;17.90;99.90
4518;DHT22;2271;49.464;11.070;2022-10-10T10:29:54;18.00;99.90
4518;DHT22;2271;49.464;11.070;2022-10-10T10:35:23;18.10;99.90
4518;DHT22;2271;49.464;11.070;2022-10-10T10:38:16;17.60;99.90
4518;DHT22;2271;49.464;11.070;2022-10-10T10:49:00;18.20;99.90
4518;DHT22;2271;49.464;11.070;2022-10-10T10:54:16;18.80;99.90
4518;DHT22;2271;49.464;11.070;2022-10-10T10:57:00;18.90;99.90
4518;DHT22;2271;49.464;11.070;2022-10-10T10:59:30;19.00;99.90
4518;DHT22;2271;49.464;11.070;2022-10-10T11:04:54;18.90;99.90
4518;DHT22;2271;49.464;11.070;2022-10-10T11:07:23;18.70;99.90
4518;DHT22;2271;49.464;11.070;2022-10-10T11:12:49;18.20;99.90
4518;DHT22;2271;49.464;11.070;2022-10-10T11:15:27;17.70;99.90
4518;DHT22;2271;49.464;11.070;2022-10-10T11:18:04;17.60;99.90
4518;DHT22;2271;49.464;11.070;2022-10-10T11:20:46;17.50;99.90
4518;DHT22;2271;49.464;11.070;2022-10-10T11:25:49;17.40;99.90
4518;DHT22;2271;49.464;11.070;2022-10-10T11:28:38;17.30;99.90
4518;DHT22;2271;49.464;11.070;2022-10-10T11:31:13;17.30;99.90
4518;DHT22;2271;49.464;11.070;2022-10-10T11:33:48;17.20;99.90
4518;DHT22;2271;49.464;11.070;2022-10-10T11:36:21;17.20;99.90
4518;DHT22;2271;49.464;11.070;2022-10-10T11:41:27;17.30;99.90
4518;DHT22;2271;49.464;11.070;2022-10-10T11:43:56;17.30;99.90
4518;DHT22;2271;49.464;11.070;2022-10-10T11:57:33;17.30;99.90
4518;DHT22;2271;49.464;11.070;2022-10-10T12:00:13;17.30;99.90
4518;DHT22;2271;49.464;11.070;2022-10-10T12:02:40;17.40;99.90
4518;DHT22;2271;49.464;11.070;2022-10-10T12:05:28;17.40;99.90
4518;DHT22;2271;49.464;11.070;2022-10-10T12:10:25;17.50;99.90
4518;DHT22;2271;49.464;11.070;2022-10-10T12:12:54;17.50;99.90
4518;DHT22;2271;49.464;11.070;2022-10-10T12:15:35;17.40;99.90
4518;DHT22;2271;49.464;11.070;2022-10-10T12:18:02;17.40;99.90
4518;DHT22;2271;49.464;11.070;2022-10-10T12:20:37;17.40;99.90
4518;DHT22;2271;49.464;11.070;2022-10-10T12:23:21;17.30;99.90
4518;DHT22;2271;49.464;11.070;2022-10-10T12:25:47;17.30;99.90
4518;DHT22;2271;49.464;11.070;2022-10-10T12:35:55;18.00;99.90
4518;DHT22;2271;49.464;11.070;2022-10-10T12:38:25;18.30;99.90
4518;DHT22;2271;49.464;11.070;2022-10-10T12:41:13;18.50;99.90
4518;DHT22;2271;49.464;11.070;2022-10-10T12:46:28;18.60;99.90
4518;DHT22;2271;49.464;11.070;2022-10-10T12:49:04;18.50;99.90
4518;DHT22;2271;49.464;11.070;2022-10-10T12:51:37;18.40;99.90
4518;DHT22;2271;49.464;11.070;2022-10-10T12:54:04;18.10;99.90
4518;DHT22;2271;49.464;11.070;2022-10-10T12:59:01;17.90;99.90
4518;DHT22;2271;49.464;11.070;2022-10-10T13:01:33;17.90;99.90
4518;DHT22;2271;49.464;11.070;2022-10-10T13:03:59;17.80;99.90
4518;DHT22;2271;49.464;11.070;2022-10-10T13:06:41;17.80;99.90
4518;DHT22;2271;49.464;11.070;2022-10-10T13:09:19;17.80;99.90
4518;DHT22;2271;49.464;11.070;2022-10-10T13:12:05;17.70;99.90
4518;DHT22;2271;49.464;11.070;2022-10-10T13:14:42;17.80;99.90
4518;DHT22;2271;49.464;11.070;2022-10-10T13:17:39;17.80;99.90
4518;DHT22;2271;49.464;11.070;2022-10-10T13:20:06;17.70;99.90
4518;DHT22;2271;49.464;11.070;2022-10-10T13:22:35;17.70;99.90
4518;DHT22;2271;49.464;11.070;2022-10-10T13:25:01;17.70;99.90
4518;DHT22;2271;49.464;11.070;2022-10-10T13:27:32;17.70;99.90
4518;DHT22;2271;49.464;11.070;2022-10-10T13:30:00;17.70;99.90
4518;DHT22;2271;49.464;11.070;2022-10-10T13:32:32;17.80;99.90
4518;DHT22;2271;49.464;11.070;2022-10-10T13:35:15;17.90;99.90
4518;DHT22;2271;49.464;11.070;2022-10-10T13:37:41;18.00;99.90
4518;DHT22;2271;49.464;11.070;2022-10-10T13:40:18;18.20;99.90
4518;DHT22;2271;49.464;11.070;2022-10-10T13:42:45;18.20;99.90
4518;DHT22;2271;49.464;11.070;2022-10-10T13:53:45;18.00;99.90
4518;DHT22;2271;49.464;11.070;2022-10-10T13:56:36;17.90;99.90
4518;DHT22;2271;49.464;11.070;2022-10-10T14:01:44;17.90;99.90
4518;DHT22;2271;49.464;11.070;2022-10-10T14:09:41;17.90;99.90
4518;DHT22;2271;49.464;11.070;2022-10-10T14:12:16;18.00;99.90
4518;DHT22;2271;49.464;11.070;2022-10-10T14:14:46;18.10;99.90
4518;DHT22;2271;49.464;11.070;2022-10-10T14:17:13;18.30;99.90
4518;DHT22;2271;49.464;11.070;2022-10-10T14:19:40;18.40;99.90
4518;DHT22;2271;49.464;11.070;2022-10-10T14:22:06;18.50;99.90
4518;DHT22;2271;49.464;11.070;2022-10-10T14:24:31;18.70;99.90
4518;DHT22;2271;49.464;11.070;2022-10-10T14:27:20;18.70;99.90
4518;DHT22;2271;49.464;11.070;2022-10-10T14:29:47;18.80;99.90
4518;DHT22;2271;49.464;11.070;2022-10-10T14:32:14;18.80;99.90
4518;DHT22;2271;49.464;11.070;2022-10-10T14:34:40;18.70;99.90
4518;DHT22;2271;49.464;11.070;2022-10-10T14:37:08;18.60;99.90
4518;DHT22;2271;49.464;11.070;2022-10-10T14:39:39;18.50;99.90
4518;DHT22;2271;49.464;11.070;2022-10-10T14:42:11;18.50;99.90
4518;DHT22;2271;49.464;11.070;2022-10-10T14:44:37;18.60;99.90
4518;DHT22;2271;49.464;11.070;2022-10-10T14:47:03;18.60;99.90
4518;DHT22;2271;49.464;11.070;2022-10-10T14:49:28;18.70;99.90
4518;DHT22;2271;49.464;11.070;2022-10-10T14:51:54;18.70;99.90
4518;DHT22;2271;49.464;11.070;2022-10-10T14:54:20;18.60;99.90
4518;DHT22;2271;49.464;11.070;2022-10-10T14:56:45;18.60;99.90
4518;DHT22;2271;49.464;11.070;2022-10-10T14:59:17;18.60;99.90
4518;DHT22;2271;49.464;11.070;2022-10-10T15:01:43;18.60;99.90
4518;DHT22;2271;49.464;11.070;2022-10-10T15:04:09;18.50;99.90
4518;DHT22;2271;49.464;11.070;2022-10-10T15:06:35;18.50;99.90
4518;DHT22;2271;49.464;11.070;2022-10-10T15:09:00;18.50;99.90
4518;DHT22;2271;49.464;11.070;2022-10-10T15:11:26;18.40;99.90
4518;DHT22;2271;49.464;11.070;2022-10-10T15:13:51;18.40;99.90
4518;DHT22;2271;49.464;11.070;2022-10-10T15:16:17;18.30;99.90
4518;DHT22;2271;49.464;11.070;2022-10-10T15:18:43;18.30;99.90
4518;DHT22;2271;49.464;11.070;2022-10-10T15:21:10;18.20;99.90
4518;DHT22;2271;49.464;11.070;2022-10-10T15:23:36;18.20;99.90
4518;DHT22;2271;49.464;11.070;2022-10-10T15:26:01;18.20;99.90
4518;DHT22;2271;49.464;11.070;2022-10-10T15:28:27;18.20;99.90
4518;DHT22;2271;49.464;11.070;2022-10-10T15:30:52;18.20;99.90
4518;DHT22;2271;49.464;11.070;2022-10-10T15:33:19;18.20;99.90
4518;DHT22;2271;49.464;11.070;2022-10-10T15:35:45;18.10;99.90
4518;DHT22;2271;49.464;11.070;2022-10-10T15:38:10;18.00;99.90
4518;DHT22;2271;49.464;11.070;2022-10-10T15:40:36;18.00;99.90
4518;DHT22;2271;49.464;11.070;2022-10-10T15:43:02;18.00;99.90
4518;DHT22;2271;49.464;11.070;2022-10-10T15:45:32;18.00;99.90
4518;DHT22;2271;49.464;11.070;2022-10-10T15:47:57;17.90;99.90
4518;DHT22;2271;49.464;11.070;2022-10-10T15:50:23;17.90;99.90
4518;DHT22;2271;49.464;11.070;2022-10-10T15:52:49;17.90;99.90
4518;DHT22;2271;49.464;11.070;2022-10-10T15:55:14;17.90;99.90
4518;DHT22;2271;49.464;11.070;2022-10-10T15:57:40;17.90;99.90
4518;DHT22;2271;49.464;11.070;2022-10-10T16:00:06;17.80;99.90
4518;DHT22;2271;49.464;11.070;2022-10-10T16:02:32;17.70;99.90
4518;DHT22;2271;49.464;11.070;2022-10-10T16:04:57;17.60;99.90
4518;DHT22;2271;49.464;11.070;2022-10-10T16:07:23;17.50;99.90
4518;DHT22;2271;49.464;11.070;2022-10-10T16:09:49;17.50;99.90
4518;DHT22;2271;49.464;11.070;2022-10-10T16:12:14;17.50;99.90
4518;DHT22;2271;49.464;11.070;2022-10-10T16:14:40;17.30;99.90
4518;DHT22;2271;49.464;11.070;2022-10-10T16:17:05;17.30;99.90
4518;DHT22;2271;49.464;11.070;2022-10-10T16:19:31;17.30;99.90
4518;DHT22;2271;49.464;11.070;2022-10-10T16:21:57;17.20;99.90
4518;DHT22;2271;49.464;11.070;2022-10-10T16:24:22;17.20;99.90
4518;DHT22;2271;49.464;11.070;2022-10-10T16:26:48;17.20;99.90
4518;DHT22;2271;49.464;11.070;2022-10-10T16:29:13;17.10;99.90
4518;DHT22;2271;49.464;11.070;2022-10-10T16:31:43;17.10;99.90
4518;DHT22;2271;49.464;11.070;2022-10-10T16:34:09;17.10;99.90
4518;DHT22;2271;49.464;11.070;2022-10-10T16:36:35;17.00;99.90
4518;DHT22;2271;49.464;11.070;2022-10-10T16:39:02;17.00;99.90
4518;DHT22;2271;49.464;11.070;2022-10-10T16:41:29;17.00;99.90
4518;DHT22;2271;49.464;11.070;2022-10-10T16:43:55;16.90;99.90
4518;DHT22;2271;49.464;11.070;2022-10-10T16:46:23;16.90;99.90
4518;DHT22;2271;49.464;11.070;2022-10-10T16:48:50;16.80;99.90
4518;DHT22;2271;49.464;11.070;2022-10-10T16:51:19;16.80;99.90
4518;DHT22;2271;49.464;11.070;2022-10-10T16:53:45;16.80;99.90
4518;DHT22;2271;49.464;11.070;2022-10-10T16:56:13;16.80;99.90
4518;DHT22;2271;49.464;11.070;2022-10-10T16:58:40;16.80;99.90
4518;DHT22;2271;49.464;11.070;2022-10-10T17:01:07;16.70;99.90
4518;DHT22;2271;49.464;11.070;2022-10-10T17:03:33;16.80;99.90
4518;DHT22;2271;49.464;11.070;2022-10-10T17:06:00;16.70;99.90
4518;DHT22;2271;49.464;11.070;2022-10-10T17:08:26;16.70;99.90
4518;DHT22;2271;49.464;11.070;2022-10-10T17:10:51;16.70;99.90
4518;DHT22;2271;49.464;11.070;2022-10-10T17:13:17;16.60;99.90
4518;DHT22;2271;49.464;11.070;2022-10-10T17:15:43;16.60;99.90
4518;DHT22;2271;49.464;11.070;2022-10-10T17:18:08;16.50;99.90
4518;DHT22;2271;49.464;11.070;2022-10-10T17:20:34;16.50;99.90
4518;DHT22;2271;49.464;11.070;2022-10-10T17:23:00;16.50;99.90
4518;DHT22;2271;49.464;11.070;2022-10-10T17:25:25;16.40;99.90
4518;DHT22;2271;49.464;11.070;2022-10-10T17:27:52;16.40;99.90
4518;DHT22;2271;49.464;11.070;2022-10-10T17:30:21;16.40;99.90
4518;DHT22;2271;49.464;11.070;2022-10-10T17:32:50;16.30;99.90
4518;DHT22;2271;49.464;11.070;2022-10-10T17:35:19;16.30;99.90
4518;DHT22;2271;49.464;11.070;2022-10-10T17:37:44;16.30;99.90
4518;DHT22;2271;49.464;11.070;2022-10-10T17:40:10;16.30;99.90
4518;DHT22;2271;49.464;11.070;2022-10-10T17:42:36;16.20;99.90
4518;DHT22;2271;49.464;11.070;2022-10-10T17:45:01;16.20;99.90
4518;DHT22;2271;49.464;11.070;2022-10-10T17:47:27;16.20;99.90
4518;DHT22;2271;49.464;11.070;2022-10-10T17:49:53;16.20;99.90
4518;DHT22;2271;49.464;11.070;2022-10-10T17:52:19;16.20;99.90